Atlanta, MI

7:42 AM EST on February 06, 2016 (GMT -0500)
Moon Lk | | Change Station
CLOSE
Current Station
Personal Weather Station
Location: Lewiston, MI
Elevation: 1240 ft
Nearby Weather Stations

Elev 1240 ft 44.84 °N, 84.26 °W | Updated 1 minute ago

Overcast
Overcast
21.8 °F
Feels Like 22 °F
N
1.3
Wind Variable Wind from SW
Gusts 1.3 mph

Today
High -- | Low -- °F
--% Chance of Precip.
Yesterday
High -- | Low -- °F
Precip. -- in
Pressure 30.14 in
Visibility 10.0 miles
Clouds Overcast 8500 ft
Windchill 22 °F
Dew Point 18 °F
Humidity 86%
Rainfall 0.00 in
Snow Depth Not available.
7:50 AM 5:51 PM
Waning Crescent, 6% visible
METAR KGLR 061153Z AUTO 23011KT 10SM OVC085 M04/M08 A3008 RMK AO2 SLP207 T10441078 11044 21072 58010
Pressure 30.14 in
Visibility 10.0 miles
Clouds Overcast 8500 ft
Windchill 22 °F
Dew Point 18 °F
Humidity 86%
Rainfall 0.00 in
Snow Depth Not available.
7:50 AM 5:51 PM
Waning Crescent, 6% visible
METAR KGLR 061153Z AUTO 23011KT 10SM OVC085 M04/M08 A3008 RMK AO2 SLP207 T10441078 11044 21072 58010

10-Day Weather Forecast

Almanac

Astronomy

Feb. 06, 2016 Rise Set
Actual Time
Civil Twilight
Nautical Twilight
Astronomical Twilight
Moon
Length of Visible Light
Length of Day
Tomorrow will be .
, % of the Moon is Illuminated

Today's Extremes

State Highs State Lows

Community

WunderPhotos

Upload Photos

1,890,954 photos uploaded!

WunderBlog® & News

Nearby

Air Quality

  Air Quality AQ Index Pollutant
Not available.

Snow Depth

Station Depth Elevation

Earthquake Activity

City Distance Mag. Time & Date
Minimum magnitude displayed is 2.5.

Coastal Water Temperatures

Place Temperature

Stations

Nearby Weather Stations

Station Location Temp. Windchill Dew Point Humidity Wind Precip. Elev Updated Type
                   

Watches & Warnings

There are currently no watches in effect.